Time;durP1;ratioP1;P1;durP2;ratioP2;P2;SDS_P1;SDS_P2;PMS_P1;PMS_P2;Temp;Humidity;BMP_temperature;BMP_pressure;BME280_temperature;BME280_humidity;BME280_pressure;Samples;Min_cycle;Max_cycle;Signal;HPM_P1;HPM_P2
2022/11/12 00:02:35;;;;;;;0.10;0.10;;;;;;;7.92;85.94;99736.00;6205724;23;20016;-67
2022/11/12 00:05:19;;;;;;;0.10;0.10;;;;;;;7.89;86.28;99744.69;6214317;23;20025;-66
2022/11/12 00:08:05;;;;;;;0.95;0.20;;;;;;;7.80;87.02;99720.69;6204799;23;20523;-66
2022/11/12 00:10:49;;;;;;;0.10;0.10;;;;;;;7.73;87.69;99701.00;6216624;23;20463;-65
2022/11/12 00:13:34;;;;;;;0.10;0.10;;;;;;;7.64;88.76;99699.81;6193946;23;20021;-65
2022/11/12 00:16:18;;;;;;;0.10;0.10;;;;;;;7.59;89.59;99687.00;6206074;23;20043;-66
2022/11/12 00:19:03;;;;;;;0.10;0.10;;;;;;;7.54;89.90;99680.69;6212707;23;20028;-67
2022/11/12 00:21:47;;;;;;;0.10;0.10;;;;;;;7.41;90.84;99679.19;6182471;23;20024;-67
2022/11/12 00:24:33;;;;;;;0.10;0.10;;;;;;;7.34;91.56;99666.63;6208126;23;20020;-64
2022/11/12 00:27:18;;;;;;;0.10;0.10;;;;;;;7.32;91.99;99671.50;6217726;23;20066;-64
2022/11/12 00:30:04;;;;;;;0.10;0.10;;;;;;;7.34;92.22;99680.22;6210849;23;20024;-64
2022/11/12 00:32:48;;;;;;;0.10;0.10;;;;;;;7.38;92.18;99673.19;6183215;23;20403;-64
2022/11/12 00:35:33;;;;;;;0.10;0.10;;;;;;;7.40;92.36;99685.72;6208612;23;20115;-64
2022/11/12 00:38:18;;;;;;;0.13;0.13;;;;;;;7.43;91.90;99691.47;6178751;23;20452;-64
2022/11/12 00:41:04;;;;;;;0.10;0.10;;;;;;;7.43;91.98;99691.47;6219053;23;20017;-64
2022/11/12 00:43:48;;;;;;;0.10;0.10;;;;;;;7.46;92.02;99685.50;6205102;23;20483;-64
2022/11/12 00:46:32;;;;;;;0.10;0.10;;;;;;;7.51;91.67;99698.34;6182888;23;20464;-64
2022/11/12 00:49:17;;;;;;;0.10;0.10;;;;;;;7.50;91.77;99696.72;6207447;23;20034;-63
2022/11/12 00:52:01;;;;;;;0.10;0.10;;;;;;;7.48;92.03;99688.78;6218072;23;20017;-64
2022/11/12 00:54:45;;;;;;;0.10;0.10;;;;;;;7.50;92.03;99691.25;6208135;23;20305;-63
2022/11/12 00:57:31;;;;;;;0.10;0.10;;;;;;;7.44;92.58;99687.66;6208473;23;20021;-65
2022/11/12 01:00:17;;;;;;;0.10;0.10;;;;;;;7.41;93.24;99712.66;6211251;23;20025;-64
2022/11/12 01:03:02;;;;;;;0.10;0.10;;;;;;;7.32;93.40;99695.97;6204094;23;20047;-63
2022/11/12 01:05:46;;;;;;;0.10;0.10;;;;;;;7.30;94.09;99694.59;6182960;23;20439;-63
2022/11/12 01:08:31;;;;;;;0.10;0.10;;;;;;;7.29;94.53;99682.06;6207352;23;20020;-64
2022/11/12 01:11:20;;;;;;;0.13;0.13;;;;;;;7.26;94.81;99675.25;6182317;23;20020;-65
2022/11/12 01:14:08;;;;;;;0.10;0.10;;;;;;;7.26;95.01;99660.81;6185453;23;20546;-64
2022/11/12 01:16:52;;;;;;;0.10;0.10;;;;;;;7.21;95.45;99662.44;6186364;23;20024;-64
2022/11/12 01:19:37;;;;;;;0.10;0.10;;;;;;;7.20;95.51;99654.50;6179928;23;20036;-64
2022/11/12 01:22:22;;;;;;;0.10;0.10;;;;;;;7.22;95.95;99658.63;6220483;23;20518;-64
2022/11/12 01:25:07;;;;;;;0.10;0.10;;;;;;;7.22;95.94;99652.34;6206752;23;20024;-63
2022/11/12 01:27:52;;;;;;;0.10;0.10;;;;;;;7.25;95.71;99649.13;6208963;23;20021;-63
2022/11/12 01:30:38;;;;;;;0.10;0.10;;;;;;;7.28;95.79;99654.06;6185251;23;20024;-64
2022/11/12 01:33:22;;;;;;;0.10;0.10;;;;;;;7.36;95.25;99652.78;6218278;23;20043;-64
2022/11/12 01:36:07;;;;;;;0.10;0.10;;;;;;;7.46;94.53;99652.06;6179069;23;20512;-64
2022/11/12 01:38:53;;;;;;;0.10;0.10;;;;;;;7.51;93.87;99663.81;6216018;23;20024;-64
2022/11/12 01:41:39;;;;;;;0.10;0.10;;;;;;;7.61;92.95;99651.38;6208963;23;20028;-64
2022/11/12 01:44:29;;;;;;;0.10;0.10;;;;;;;7.64;92.57;99650.84;6196618;23;20017;-64
2022/11/12 01:47:20;;;;;;;0.10;0.10;;;;;;;7.61;91.98;99627.72;6215037;23;20499;-64
2022/11/12 01:50:13;;;;;;;0.10;0.10;;;;;;;7.69;91.66;99626.41;6218372;23;20020;-62
2022/11/12 01:53:03;;;;;;;0.10;0.10;;;;;;;7.74;91.80;99633.81;6208465;23;20051;-63
2022/11/12 01:55:48;;;;;;;0.10;0.10;;;;;;;7.74;91.81;99625.63;6208003;23;20048;-64
2022/11/12 01:58:36;;;;;;;0.10;0.10;;;;;;;7.72;91.94;99635.94;6217730;23;20025;-64
2022/11/12 02:01:21;;;;;;;0.10;0.10;;;;;;;7.69;92.18;99626.41;6217895;23;20024;-64
2022/11/12 02:04:06;;;;;;;0.10;0.10;;;;;;;7.72;92.03;99630.50;6208210;23;20025;-63
2022/11/12 02:06:52;;;;;;;0.10;0.10;;;;;;;7.73;92.15;99634.88;6205481;23;20024;-62
2022/11/12 02:09:37;;;;;;;0.10;0.10;;;;;;;7.65;92.72;99628.81;6219006;23;20020;-64
2022/11/12 02:15:45;;;;;;;0.10;0.10;;;;;;;7.59;93.33;99616.25;6182579;23;20476;-64
2022/11/12 02:18:29;;;;;;;0.10;0.10;;;;;;;7.59;93.75;99615.44;6207241;23;20040;-62
2022/11/12 02:21:19;;;;;;;0.10;0.10;;;;;;;7.62;94.04;99614.91;6216912;23;20031;-64
2022/11/12 02:24:06;;;;;;;0.10;0.10;;;;;;;7.55;94.22;99606.97;6214551;23;20025;-63
2022/11/12 02:26:53;;;;;;;0.10;0.10;;;;;;;7.53;94.60;99598.25;6217921;23;20020;-61
2022/11/12 02:29:45;;;;;;;0.10;0.10;;;;;;;7.51;94.79;99598.50;6213775;23;20404;-64
2022/11/12 02:32:31;;;;;;;0.10;0.10;;;;;;;7.47;95.06;99589.22;6186441;23;20146;-63
2022/11/12 02:35:15;;;;;;;0.10;0.10;;;;;;;7.51;95.40;99592.25;6219096;23;20024;-64
2022/11/12 02:38:01;;;;;;;0.10;0.10;;;;;;;7.55;95.33;99587.09;6184363;23;20016;-64
2022/11/12 02:40:46;;;;;;;0.10;0.10;;;;;;;7.60;95.36;99593.41;6178980;23;20341;-64
2022/11/12 02:43:30;;;;;;;0.10;0.10;;;;;;;7.63;94.71;99579.28;6213772;23;20021;-63
2022/11/12 02:46:15;;;;;;;0.10;0.10;;;;;;;7.66;94.43;99576.03;6190486;23;20111;-64
2022/11/12 02:48:59;;;;;;;0.10;0.10;;;;;;;7.71;94.28;99588.03;6217338;23;20048;-64
2022/11/12 02:51:43;;;;;;;0.10;0.10;;;;;;;7.76;93.85;99582.66;6207358;23;20055;-64
2022/11/12 02:54:29;;;;;;;0.10;0.10;;;;;;;7.83;93.46;99580.50;6217257;23;20491;-63
2022/11/12 02:57:13;;;;;;;0.10;0.10;;;;;;;7.86;92.98;99590.06;6180337;23;20024;-63
2022/11/12 02:59:58;;;;;;;0.10;0.10;;;;;;;7.87;92.49;99576.16;6206378;23;20368;-64
2022/11/12 03:02:42;;;;;;;0.10;0.10;;;;;;;7.93;92.46;99571.56;6203679;23;20081;-62
2022/11/12 03:05:27;;;;;;;0.10;0.10;;;;;;;7.97;91.53;99604.56;6215279;23;20021;-64
2022/11/12 03:08:12;;;;;;;0.10;0.10;;;;;;;7.99;91.14;99578.72;6206026;23;20024;-64
2022/11/12 03:10:57;;;;;;;0.10;0.10;;;;;;;8.03;90.85;99574.38;6205904;23;20025;-65
2022/11/12 03:13:42;;;;;;;0.10;0.10;;;;;;;8.02;90.82;99582.78;6207279;23;20020;-64
2022/11/12 03:16:27;;;;;;;0.10;0.10;;;;;;;8.06;90.66;99576.56;6220875;23;20024;-64
2022/11/12 03:19:11;;;;;;;0.10;0.10;;;;;;;8.07;90.40;99567.31;6206605;23;20028;-64
2022/11/12 03:21:56;;;;;;;0.10;0.10;;;;;;;8.11;90.54;99583.94;6221697;23;20020;-64
2022/11/12 03:24:40;;;;;;;0.10;0.10;;;;;;;8.05;90.05;99553.13;6209597;23;20047;-64
2022/11/12 03:27:26;;;;;;;0.10;0.10;;;;;;;8.16;89.85;99558.66;6205476;23;20024;-64
2022/11/12 03:30:11;;;;;;;0.10;0.10;;;;;;;8.17;89.80;99547.47;6222444;23;20032;-64
2022/11/12 03:32:55;;;;;;;0.10;0.10;;;;;;;8.15;89.63;99536.03;6217666;23;20483;-64
2022/11/12 03:35:40;;;;;;;0.10;0.10;;;;;;;8.18;89.66;99540.13;6218119;23;20219;-64
2022/11/12 03:38:25;;;;;;;0.10;0.10;;;;;;;8.20;89.48;99530.63;6208026;23;20020;-64
2022/11/12 03:41:09;;;;;;;0.10;0.10;;;;;;;8.18;89.75;99540.94;6217575;23;20024;-63
2022/11/12 03:43:55;;;;;;;0.10;0.10;;;;;;;8.15;89.77;99530.59;6217552;23;20021;-64
2022/11/12 03:46:39;;;;;;;0.10;0.10;;;;;;;8.19;89.77;99536.31;6207420;23;20096;-65
2022/11/12 03:49:23;;;;;;;0.10;0.10;;;;;;;8.19;89.70;99528.97;6187136;23;20032;-64
2022/11/12 03:52:08;;;;;;;0.10;0.10;;;;;;;8.22;89.64;99546.69;6221486;23;20017;-62
2022/11/12 03:54:52;;;;;;;0.10;0.10;;;;;;;8.23;89.57;99568.22;6209565;23;20059;-64
2022/11/12 03:57:38;;;;;;;0.10;0.10;;;;;;;8.24;89.73;99541.78;6206310;23;20040;-65
2022/11/12 04:00:26;;;;;;;0.10;0.10;;;;;;;8.25;89.50;99534.44;6219036;23;20024;-64
2022/11/12 04:03:10;;;;;;;0.10;0.10;;;;;;;8.25;89.57;99531.72;6217888;23;20024;-64
2022/11/12 04:08:58;;;;;;;0.10;0.10;;;;;;;8.20;89.55;99516.19;6217545;23;20027;-64
2022/11/12 04:11:42;;;;;;;0.10;0.10;;;;;;;8.25;89.56;99524.34;6218257;23;20070;-64
2022/11/12 04:14:27;;;;;;;0.10;0.10;;;;;;;8.26;89.63;99517.03;6217966;23;20027;-64
2022/11/12 04:23:19;;;;;;;0.10;0.10;;;;;;;8.20;90.08;99497.94;6210467;23;20119;-64
2022/11/12 04:32:09;;;;;;;0.10;0.10;;;;;;;8.26;90.24;99511.56;6214950;23;20030;-64
2022/11/12 04:34:56;;;;;;;0.10;0.10;;;;;;;8.25;90.26;99499.84;6219310;23;20020;-63
2022/11/12 04:37:43;;;;;;;0.10;0.10;;;;;;;8.23;90.66;99497.41;6219217;23;20021;-64
2022/11/12 04:46:34;;;;;;;0.10;0.10;;;;;;;8.36;88.99;99495.28;6205430;23;20028;-66
2022/11/12 04:49:18;;;;;;;0.10;0.10;;;;;;;8.37;88.97;99496.91;6216689;23;20431;-67
2022/11/12 04:52:04;;;;;;;0.10;0.10;;;;;;;8.41;88.75;99480.81;6217386;23;20032;-67
2022/11/12 04:54:48;;;;;;;0.10;0.10;;;;;;;8.41;88.89;99492.56;6220242;23;20029;-66
2022/11/12 04:57:33;;;;;;;0.10;0.10;;;;;;;8.39;88.94;99494.72;6210085;23;20021;-66
2022/11/12 05:00:17;;;;;;;0.10;0.10;;;;;;;8.38;89.25;99499.34;6183977;23;20031;-67
2022/11/12 05:03:02;;;;;;;0.10;0.10;;;;;;;8.38;89.01;99493.91;6181779;23;20016;-67
2022/11/12 05:05:46;;;;;;;0.10;0.10;;;;;;;8.40;89.08;99500.97;6209024;23;20021;-67
2022/11/12 05:08:32;;;;;;;0.10;0.10;;;;;;;8.43;89.20;99474.03;6181436;23;20105;-66
2022/11/12 05:11:16;;;;;;;0.47;0.10;;;;;;;8.45;88.81;99492.84;6221382;23;20020;-66
2022/11/12 05:14:01;;;;;;;0.10;0.10;;;;;;;8.47;88.57;99488.75;6208045;23;20024;-66
2022/11/12 05:16:46;;;;;;;0.38;0.17;;;;;;;8.49;88.62;99485.75;6215873;23;20024;-67
2022/11/12 05:19:30;;;;;;;0.10;0.10;;;;;;;8.53;88.39;99484.16;6206477;23;20021;-66
2022/11/12 05:22:14;;;;;;;0.10;0.10;;;;;;;8.56;88.24;99471.91;6181399;23;20021;-66
2022/11/12 05:25:00;;;;;;;0.10;0.10;;;;;;;8.55;88.09;99483.91;6208321;23;20027;-66
2022/11/12 05:27:45;;;;;;;0.10;0.10;;;;;;;8.54;88.44;99474.91;6183537;23;20111;-66
2022/11/12 05:30:30;;;;;;;0.10;0.10;;;;;;;8.52;88.60;99477.06;6208636;23;20048;-66
2022/11/12 05:33:15;;;;;;;0.10;0.10;;;;;;;8.53;88.68;99477.91;6179667;23;20020;-67
2022/11/12 05:35:59;;;;;;;0.10;0.10;;;;;;;8.54;88.45;99496.69;6214183;23;20147;-66
2022/11/12 05:38:44;;;;;;;0.10;0.10;;;;;;;8.59;88.10;99482.28;6207284;23;20463;-66
2022/11/12 05:41:30;;;;;;;0.10;0.10;;;;;;;8.62;87.60;99479.00;6208356;23;20074;-66
2022/11/12 05:44:15;;;;;;;0.10;0.10;;;;;;;8.62;87.68;99484.47;6197639;23;20024;-67
2022/11/12 05:47:00;;;;;;;0.10;0.10;;;;;;;8.62;87.70;99474.38;6187781;23;20460;-67
2022/11/12 05:49:44;;;;;;;0.10;0.10;;;;;;;8.67;87.68;99468.13;6219098;23;20025;-67
2022/11/12 05:52:29;;;;;;;0.10;0.10;;;;;;;8.68;87.66;99477.09;6216350;23;20046;-67
2022/11/12 05:55:14;;;;;;;0.10;0.10;;;;;;;8.68;87.45;99475.22;6216874;23;20028;-66
2022/11/12 05:58:03;;;;;;;0.10;0.10;;;;;;;8.68;87.47;99464.31;6207392;23;20547;-67
2022/11/12 06:00:48;;;;;;;0.10;0.10;;;;;;;8.69;87.49;99462.38;6217065;23;20023;-67
2022/11/12 06:03:32;;;;;;;0.10;0.10;;;;;;;8.69;87.44;99479.56;6186331;23;20024;-65
2022/11/12 06:06:17;;;;;;;0.10;0.10;;;;;;;8.73;87.34;99485.28;6217636;23;20020;-65
2022/11/12 06:09:02;;;;;;;0.10;0.10;;;;;;;8.72;87.40;99481.75;6205750;23;20068;-65
2022/11/12 06:11:46;;;;;;;0.10;0.10;;;;;;;8.74;87.45;99484.19;6204521;23;20039;-65
2022/11/12 06:14:32;;;;;;;0.10;0.10;;;;;;;8.68;87.37;99493.47;6214488;23;20025;-64
2022/11/12 06:17:16;;;;;;;0.30;0.20;;;;;;;8.75;87.26;99467.59;6219945;23;20020;-64
2022/11/12 06:20:01;;;;;;;0.10;0.10;;;;;;;8.75;86.92;99475.75;6210719;23;20106;-64
2022/11/12 06:22:46;;;;;;;0.10;0.10;;;;;;;8.77;86.97;99467.31;6217260;23;20021;-64
2022/11/12 06:25:31;;;;;;;0.10;0.10;;;;;;;8.77;87.08;99478.22;6210994;23;20526;-64
2022/11/12 06:28:15;;;;;;;0.45;0.20;;;;;;;8.83;86.99;99468.16;6207270;23;20083;-64
2022/11/12 06:31:00;;;;;;;0.10;0.10;;;;;;;8.89;86.86;99461.59;6204353;23;20535;-64
2022/11/12 06:33:46;;;;;;;0.10;0.10;;;;;;;8.89;86.66;99453.41;6219571;23;20025;-64
2022/11/12 06:36:31;;;;;;;0.10;0.10;;;;;;;8.88;86.60;99457.25;6208491;23;20087;-64
2022/11/12 06:39:15;;;;;;;0.10;0.10;;;;;;;8.88;86.97;99446.34;6195607;23;20028;-65
2022/11/12 06:42:00;;;;;;;0.10;0.10;;;;;;;8.90;86.87;99446.88;6216862;23;20128;-64
2022/11/12 06:44:45;;;;;;;0.32;0.10;;;;;;;9.00;86.74;99457.78;6207825;23;20100;-65
2022/11/12 06:47:31;;;;;;;0.10;0.10;;;;;;;8.99;86.27;99458.06;6204576;23;20017;-65
2022/11/12 06:50:16;;;;;;;0.10;0.10;;;;;;;8.97;86.14;99457.50;6205626;23;20039;-64
2022/11/12 06:53:00;;;;;;;0.10;0.10;;;;;;;8.97;86.19;99463.78;6217214;23;20467;-64
2022/11/12 06:55:45;;;;;;;0.10;0.10;;;;;;;8.98;86.40;99435.44;6159851;23;20021;-64
2022/11/12 06:58:29;;;;;;;0.13;0.13;;;;;;;8.99;86.62;99437.06;6206893;23;20024;-65
2022/11/12 07:01:15;;;;;;;0.10;0.10;;;;;;;9.02;86.35;99427.50;6215508;23;20024;-64
2022/11/12 07:04:01;;;;;;;0.10;0.10;;;;;;;8.95;86.87;99419.59;6205086;23;20099;-64
2022/11/12 07:06:46;;;;;;;0.10;0.10;;;;;;;8.99;87.03;99428.88;6215530;23;20119;-64
2022/11/12 07:09:30;;;;;;;0.10;0.10;;;;;;;8.99;87.17;99453.44;6215838;23;20107;-66
2022/11/12 07:12:14;;;;;;;0.10;0.10;;;;;;;8.97;87.13;99420.13;6204315;23;20020;-64
2022/11/12 07:14:58;;;;;;;0.10;0.10;;;;;;;9.02;87.00;99420.16;6213723;23;20028;-64
2022/11/12 07:17:44;;;;;;;0.10;0.10;;;;;;;9.08;86.51;99401.88;6214166;23;20074;-64
2022/11/12 07:20:30;;;;;;;0.10;0.10;;;;;;;9.18;86.05;99395.59;6206434;23;20024;-64
2022/11/12 07:23:15;;;;;;;0.10;0.10;;;;;;;9.30;85.70;99387.09;6179136;23;20528;-64
2022/11/12 07:26:01;;;;;;;0.10;0.10;;;;;;;9.29;84.60;99375.41;6215115;23;20044;-64
2022/11/12 07:28:47;;;;;;;0.10;0.10;;;;;;;9.27;85.03;99363.91;6182577;23;20114;-64
2022/11/12 07:31:32;;;;;;;0.10;0.10;;;;;;;9.25;84.99;99357.91;6204614;23;20024;-64
2022/11/12 07:34:16;;;;;;;0.10;0.10;;;;;;;9.33;85.01;99356.53;6206678;23;20098;-64
2022/11/12 07:37:02;;;;;;;0.10;0.10;;;;;;;9.43;84.25;99348.31;6205296;23;20025;-64
2022/11/12 07:39:46;;;;;;;0.20;0.20;;;;;;;9.50;84.29;99367.13;6206545;23;20021;-64
2022/11/12 07:42:32;;;;;;;0.20;0.20;;;;;;;9.56;83.79;99348.84;6212279;23;20024;-66
2022/11/12 07:45:17;;;;;;;0.10;0.10;;;;;;;9.53;83.86;99357.59;6210003;23;20491;-67
2022/11/12 07:48:01;;;;;;;0.10;0.10;;;;;;;9.47;84.02;99343.13;6200436;23;20023;-64
2022/11/12 07:50:46;;;;;;;0.30;0.20;;;;;;;9.43;84.17;99334.69;6214676;23;20147;-64
2022/11/12 07:53:32;;;;;;;0.20;0.20;;;;;;;9.46;84.24;99323.19;6183020;23;20078;-65
2022/11/12 07:56:18;;;;;;;0.10;0.10;;;;;;;9.47;83.99;99333.03;6208602;23;20016;-65
2022/11/12 07:59:03;;;;;;;0.10;0.10;;;;;;;9.50;83.88;99359.75;6207931;23;20436;-64
2022/11/12 08:01:48;;;;;;;0.10;0.10;;;;;;;9.50;83.65;99343.38;6204032;23;20463;-64
2022/11/12 08:04:32;;;;;;;0.10;0.10;;;;;;;9.50;83.79;99329.72;6204167;23;20028;-65
2022/11/12 08:07:17;;;;;;;0.10;0.10;;;;;;;9.49;83.93;99324.56;6159532;23;20234;-65
2022/11/12 08:10:03;;;;;;;0.10;0.10;;;;;;;9.44;84.11;99325.41;6159125;23;20367;-64
2022/11/12 08:12:48;;;;;;;0.10;0.10;;;;;;;9.55;83.77;99315.25;6212438;23;20083;-65
2022/11/12 08:15:32;;;;;;;0.10;0.10;;;;;;;9.58;83.91;99328.34;6177488;23;20028;-65
2022/11/12 08:18:17;;;;;;;0.20;0.20;;;;;;;9.60;83.14;99315.25;6209502;23;20035;-65
2022/11/12 08:21:04;;;;;;;0.13;0.13;;;;;;;9.63;83.63;99305.66;6211988;23;20025;-65
2022/11/12 08:23:49;;;;;;;0.10;0.10;;;;;;;9.64;83.32;99305.41;6188908;23;20027;-64
2022/11/12 08:26:35;;;;;;;0.10;0.10;;;;;;;9.61;83.79;99292.31;6210535;23;20440;-65
2022/11/12 08:29:22;;;;;;;0.10;0.10;;;;;;;9.60;83.79;99296.16;6212032;23;20021;-67
2022/11/12 08:32:06;;;;;;;0.10;0.10;;;;;;;9.64;83.48;99297.22;6214768;23;20017;-67
2022/11/12 08:34:50;;;;;;;0.10;0.10;;;;;;;9.67;83.57;99270.44;6208604;23;20021;-64
2022/11/12 08:37:35;;;;;;;0.20;0.20;;;;;;;9.61;83.69;99265.03;6205767;23;20051;-64
2022/11/12 08:40:19;;;;;;;0.10;0.10;;;;;;;9.60;83.76;99270.75;6206335;23;20420;-64
2022/11/12 08:43:07;;;;;;;0.10;0.10;;;;;;;9.60;84.15;99265.28;6194024;23;20090;-65
2022/11/12 08:45:51;;;;;;;0.10;0.10;;;;;;;9.67;83.91;99264.97;6216105;23;20460;-64
2022/11/12 08:48:36;;;;;;;0.10;0.10;;;;;;;9.69;83.64;99246.41;6209923;23;20055;-64
2022/11/12 08:51:20;;;;;;;0.10;0.10;;;;;;;9.70;83.64;99256.22;6208826;23;20355;-64
2022/11/12 08:54:04;;;;;;;0.20;0.20;;;;;;;9.71;83.75;99238.75;6209815;23;20021;-64
2022/11/12 08:56:49;;;;;;;0.10;0.10;;;;;;;9.71;83.78;99250.50;6215865;23;20025;-64
2022/11/12 08:59:35;;;;;;;0.10;0.10;;;;;;;9.70;83.83;99248.88;6205990;23;20028;-64
2022/11/12 09:02:21;;;;;;;0.10;0.10;;;;;;;9.69;83.74;99241.78;6208251;23;20104;-64
2022/11/12 09:05:06;;;;;;;0.10;0.10;;;;;;;9.65;84.16;99225.13;6207775;23;20419;-64
2022/11/12 09:07:56;;;;;;;0.10;0.10;;;;;;;9.69;83.96;99230.84;6204759;23;20028;-67
2022/11/12 09:10:41;;;;;;;0.10;0.10;;;;;;;9.64;84.15;99209.03;6191915;23;20028;-67
2022/11/12 09:13:25;;;;;;;0.10;0.10;;;;;;;9.65;84.30;99197.84;6205840;23;20056;-67
2022/11/12 09:16:11;;;;;;;0.10;0.10;;;;;;;9.68;84.18;99207.38;6204432;23;20025;-67
2022/11/12 09:18:55;;;;;;;0.10;0.10;;;;;;;9.68;84.08;99187.44;6217445;23;20024;-67
2022/11/12 09:21:40;;;;;;;0.10;0.10;;;;;;;9.70;84.22;99204.34;6215927;23;20025;-67
2022/11/12 09:24:24;;;;;;;0.10;0.10;;;;;;;9.68;84.50;99201.94;6195138;23;20020;-67
2022/11/12 09:27:09;;;;;;;0.10;0.10;;;;;;;9.63;84.64;99177.38;6215061;23;20024;-67
2022/11/12 09:29:53;;;;;;;0.10;0.10;;;;;;;9.60;84.43;99156.94;6213838;23;20023;-67
2022/11/12 09:32:39;;;;;;;0.20;0.20;;;;;;;9.65;84.41;99156.06;6181534;23;20024;-68
2022/11/12 09:35:24;;;;;;;0.10;0.10;;;;;;;9.63;84.62;99144.63;6207054;23;20360;-67
2022/11/12 09:38:10;;;;;;;0.10;0.10;;;;;;;9.67;84.50;99159.31;6215574;23;20059;-67
2022/11/12 09:41:10;;;;;;;0.17;0.17;;;;;;;9.63;84.63;99139.16;6161196;23;20067;-65
2022/11/12 09:44:00;;;;;;;0.10;0.10;;;;;;;9.65;84.68;99142.41;6215503;23;20499;-64
2022/11/12 09:46:50;;;;;;;0.10;0.10;;;;;;;9.73;84.40;99132.81;6215445;23;20468;-64
2022/11/12 09:49:42;;;;;;;0.10;0.10;;;;;;;9.73;84.28;99135.53;6182304;23;20021;-65
2022/11/12 09:52:28;;;;;;;0.20;0.20;;;;;;;9.71;84.55;99097.63;6157373;23;20110;-64
2022/11/12 09:55:20;;;;;;;0.20;0.20;;;;;;;9.81;84.32;99098.63;6205235;23;20146;-64
2022/11/12 09:58:10;;;;;;;0.10;0.10;;;;;;;9.86;84.28;99109.50;6207632;23;20025;-64
2022/11/12 10:00:57;;;;;;;0.10;0.10;;;;;;;9.79;83.96;99102.44;6193959;23;20028;-64
2022/11/12 10:03:45;;;;;;;;;;;;;;;9.81;84.00;99074.03;6182484;23;20021;-64
2022/11/12 10:06:38;;;;;;;0.10;0.10;;;;;;;9.76;84.54;99078.47;6216181;23;20263;-64
2022/11/12 10:09:30;;;;;;;0.10;0.10;;;;;;;9.77;84.53;99071.09;6215045;23;20456;-65
2022/11/12 10:12:32;;;;;;;0.13;0.10;;;;;;;9.82;84.47;99067.47;6179287;23;20151;-65
2022/11/12 10:19:04;;;;;;;0.10;0.10;;;;;;;9.80;84.21;99065.06;6205423;23;20123;-65
2022/11/12 10:21:59;;;;;;;0.10;0.10;;;;;;;9.81;84.41;99035.81;6175613;23;20020;-65
2022/11/12 10:24:44;;;;;;;0.10;0.10;;;;;;;9.83;84.41;99060.91;6206397;23;20040;-65
2022/11/12 10:27:37;;;;;;;0.10;0.10;;;;;;;9.75;85.10;99055.00;6206115;23;20173;-65
2022/11/12 10:30:23;;;;;;;0.10;0.10;;;;;;;9.75;85.17;99079.56;6217180;23;20020;-65
2022/11/12 10:33:12;;;;;;;0.10;0.10;;;;;;;9.76;85.15;99073.00;6210688;23;20190;-67
2022/11/12 10:36:11;;;;;;;0.10;0.10;;;;;;;9.86;84.82;99071.28;6207524;23;20032;-67
2022/11/12 10:38:57;;;;;;;0.13;0.13;;;;;;;9.82;84.91;99051.94;6209024;23;20025;-67
2022/11/12 10:41:43;;;;;;;0.10;0.10;;;;;;;9.84;84.78;99051.66;6185214;23;20344;-67
2022/11/12 10:44:27;;;;;;;0.10;0.10;;;;;;;9.84;85.16;99029.81;6194207;23;20028;-65
2022/11/12 10:47:27;;;;;;;0.10;0.10;;;;;;;9.87;84.94;99046.41;6220519;23;20024;-67
2022/11/12 10:50:18;;;;;;;0.10;0.10;;;;;;;9.90;84.91;99039.56;6208781;23;20017;-67
2022/11/12 10:53:04;;;;;;;0.10;0.10;;;;;;;9.89;84.67;99038.72;6207749;23;20025;-67
2022/11/12 10:55:57;;;;;;;0.17;0.17;;;;;;;9.87;84.64;99030.03;6207527;23;20020;-67
2022/11/12 10:58:42;;;;;;;0.17;0.17;;;;;;;9.90;84.67;99020.44;6210308;23;20032;-67
2022/11/12 11:01:26;;;;;;;0.10;0.10;;;;;;;9.92;84.53;99035.44;6219153;23;20146;-67
2022/11/12 11:04:19;;;;;;;0.10;0.10;;;;;;;9.96;84.54;99018.47;6182722;23;20025;-68
2022/11/12 11:07:06;;;;;;;0.70;0.15;;;;;;;9.99;84.23;99009.69;6207215;23;20747;-67
2022/11/12 11:09:55;;;;;;;0.10;0.10;;;;;;;9.92;84.59;99015.50;6180480;23;20103;-67
2022/11/12 11:12:41;;;;;;;0.13;0.13;;;;;;;9.87;84.85;98996.47;6215897;23;20024;-67
2022/11/12 11:15:26;;;;;;;0.13;0.13;;;;;;;9.88;85.36;98992.63;6205605;23;20044;-67
2022/11/12 11:18:11;;;;;;;0.10;0.10;;;;;;;9.78;86.29;98977.97;6215516;23;20363;-67
2022/11/12 11:21:06;;;;;;;0.10;0.10;;;;;;;9.70;86.79;98983.25;6208230;23;20396;-67
2022/11/12 11:23:58;;;;;;;0.17;0.17;;;;;;;9.53;nan;98953.69;6208537;23;20028;-68
2022/11/12 11:26:53;;;;;;;0.10;0.10;;;;;;;9.59;87.93;98969.69;6214793;23;20024;-67
2022/11/12 11:29:54;;;;;;;0.10;0.10;;;;;;;9.60;88.49;98943.22;6207775;23;20028;-67
2022/11/12 11:33:10;;;;;;;0.20;0.20;;;;;;;9.62;88.39;98943.75;6219419;23;20099;-68
2022/11/12 11:36:08;;;;;;;0.10;0.10;;;;;;;9.60;88.41;98952.25;6210987;23;20063;-67
2022/11/12 11:38:59;;;;;;;0.10;0.10;;;;;;;9.53;88.61;98924.47;6206106;23;20099;-67
2022/11/12 11:41:53;;;;;;;0.10;0.10;;;;;;;9.50;88.87;98909.47;6215232;23;20025;-67
2022/11/12 11:44:49;;;;;;;0.10;0.10;;;;;;;9.52;89.02;98917.38;6205716;23;20145;-67
2022/11/12 11:47:42;;;;;;;0.10;0.10;;;;;;;9.58;88.67;98891.66;6214386;23;20025;-67
2022/11/12 11:50:28;;;;;;;0.10;0.10;;;;;;;9.61;88.76;98909.38;6206352;23;20182;-66
2022/11/12 11:53:22;;;;;;;0.10;0.10;;;;;;;9.59;88.69;98885.09;6207972;23;20118;-64
2022/11/12 11:56:18;;;;;;;0.10;0.10;;;;;;;9.60;89.03;98873.09;6210055;23;20024;-67
2022/11/12 11:59:19;;;;;;;0.10;0.10;;;;;;;9.66;88.87;98882.00;6215907;23;20016;-67
2022/11/12 12:02:27;;;;;;;0.10;0.10;;;;;;;9.58;89.26;98867.09;6213219;23;20027;-67
2022/11/12 12:05:28;;;;;;;0.10;0.10;;;;;;;9.63;89.24;98868.94;6216938;23;20359;-67
2022/11/12 12:08:20;;;;;;;0.10;0.10;;;;;;;9.62;89.34;98870.88;6205773;23;20036;-67
2022/11/12 12:11:13;;;;;;;0.10;0.10;;;;;;;9.52;90.31;98851.91;6208481;23;20049;-67
2022/11/12 12:14:15;;;;;;;0.10;0.10;;;;;;;9.51;90.75;98851.06;6208564;23;20025;-67
2022/11/12 12:17:11;;;;;;;0.10;0.10;;;;;;;9.45;90.91;98833.13;6183041;23;20028;-67
2022/11/12 12:20:03;;;;;;;0.10;0.10;;;;;;;9.45;91.25;98813.25;6183740;23;20025;-67
2022/11/12 12:22:52;;;;;;;0.10;0.10;;;;;;;9.43;91.78;98823.59;6219263;23;20031;-67
2022/11/12 12:25:41;;;;;;;0.10;0.10;;;;;;;9.44;91.78;98804.22;6217876;23;20024;-67
2022/11/12 12:28:33;;;;;;;0.10;0.10;;;;;;;9.43;92.37;98846.25;6208514;23;20024;-67
2022/11/12 12:31:23;;;;;;;0.10;0.10;;;;;;;9.42;92.25;98805.63;6216580;23;20456;-67
2022/11/12 12:34:18;;;;;;;0.17;0.10;;;;;;;9.39;92.62;98811.66;6206149;23;20047;-67
2022/11/12 12:37:11;;;;;;;0.10;0.10;;;;;;;9.36;92.76;98774.84;6180784;23;20401;-66
2022/11/12 12:40:03;;;;;;;0.10;0.10;;;;;;;9.38;93.24;98771.84;6182821;23;20468;-67
2022/11/12 12:42:54;;;;;;;0.10;0.10;;;;;;;9.34;93.52;98801.63;6208321;23;20395;-67
2022/11/12 12:45:40;;;;;;;0.10;0.10;;;;;;;9.36;93.65;98777.59;6209788;23;20024;-67
2022/11/12 12:48:29;;;;;;;0.10;0.10;;;;;;;9.32;93.77;98769.19;6220275;23;20020;-67
2022/11/12 12:51:13;;;;;;;0.10;0.10;;;;;;;9.33;93.94;98761.81;6217906;23;20111;-67
2022/11/12 12:53:59;;;;;;;0.10;0.10;;;;;;;9.33;93.98;98778.16;6210482;23;20051;-67
2022/11/12 12:56:46;;;;;;;0.10;0.10;;;;;;;9.36;93.90;98755.75;6208660;23;20020;-67
2022/11/12 12:59:31;;;;;;;;;;;;;;;9.45;93.59;98739.56;6212157;23;20078;-67
2022/11/12 13:02:20;;;;;;;0.20;0.20;;;;;;;9.56;92.70;98732.84;6219154;23;19927;-67
2022/11/12 13:05:20;;;;;;;0.10;0.10;;;;;;;9.70;91.74;98786.72;6221257;23;20131;-67
2022/11/12 13:08:09;;;;;;;0.10;0.10;;;;;;;9.75;90.98;98742.97;6201775;23;20025;-67
2022/11/12 13:10:57;;;;;;;0.10;0.10;;;;;;;9.85;90.65;98740.09;6202338;23;20020;-64
2022/11/12 13:13:42;;;;;;;0.10;0.10;;;;;;;9.87;90.51;98723.44;6217726;23;20021;-64
2022/11/12 13:16:58;;;;;;;0.10;0.10;;;;;;;9.90;90.54;98729.09;6215392;23;20566;-65
2022/11/12 13:20:07;;;;;;;0.10;0.10;;;;;;;9.91;90.32;98733.47;6201608;23;20020;-67
2022/11/12 13:22:52;;;;;;;0.10;0.10;;;;;;;9.98;90.11;98696.75;6203312;23;20024;-64
2022/11/12 13:25:37;;;;;;;0.10;0.10;;;;;;;9.96;90.35;98707.97;6174491;23;20111;-64
2022/11/12 13:28:23;;;;;;;0.10;0.10;;;;;;;9.91;90.52;98725.28;6213381;23;20460;-64
2022/11/12 13:31:25;;;;;;;0.10;0.10;;;;;;;9.91;90.55;98705.34;6211425;23;20021;-65
2022/11/12 13:34:21;;;;;;;0.10;0.10;;;;;;;9.95;90.91;98698.16;6204585;23;20024;-65
2022/11/12 13:37:18;;;;;;;0.10;0.10;;;;;;;9.92;91.32;98691.41;6213478;23;20474;-64
2022/11/12 13:40:09;;;;;;;0.38;0.10;;;;;;;9.94;91.28;98696.53;6216247;23;20024;-67
2022/11/12 13:42:55;;;;;;;0.10;0.10;;;;;;;9.95;91.35;98689.97;6186896;23;20016;-67
2022/11/12 13:45:47;;;;;;;0.10;0.10;;;;;;;9.92;91.08;98671.47;6218134;23;20032;-67